aviador You're here:

MMMZ Decoded Metar

MAZATLAN in MEXICO
Report Time2018-01-17 04:42:00
UTC Time2018-01-17 05:06:49
Flight Rules vfr VFR
WindCalm
Visibility9999 m
Phenomena:N/A
Clouds:N/A
Expected CloudBase > 400 ft AGL from Temp-Dew spread
CeilingNone
Temp15°C (ISA 0)
Dew Point14°C (94% RH)
QNH1017 hPa
Density Alt118 ft
Elevation33 ft
Report Wrong Elevation
Raw Report
METAR MMMZ 170442Z 00000KT 10SM SKC 15/14 A3003 RMK HZY=

Extra information for MMMZ:More info

Metar Taf Metar & Taf Last 4 Metars F.Rules Stats Wind Profile Meteogram Temp Stats Airport Information Weather charts Add Link Nearby VenuesMetar ALERT Operation Metar Decoded Social comments